createdAt,value
2018-12-13T00:00:22.903Z,6.27
2018-12-13T00:02:51.943Z,5.50
2018-12-13T00:05:20.993Z,7.23
2018-12-13T00:07:50.061Z,6.60
2018-12-13T00:10:19.104Z,7.20
2018-12-13T00:12:48.171Z,5.00
2018-12-13T00:15:17.262Z,5.97
2018-12-13T00:17:46.320Z,7.40
2018-12-13T00:20:15.378Z,7.50
2018-12-13T00:22:44.439Z,6.53
2018-12-13T00:25:13.483Z,5.87
2018-12-13T00:27:42.518Z,5.43
2018-12-13T00:30:11.601Z,11.67
2018-12-13T00:32:40.648Z,12.70
2018-12-13T00:35:09.688Z,9.53
2018-12-13T00:37:38.778Z,6.50
2018-12-13T00:40:07.832Z,5.47
2018-12-13T00:42:36.875Z,5.77
2018-12-13T00:45:05.942Z,4.80
2018-12-13T00:47:34.984Z,4.37
2018-12-13T00:50:04.034Z,4.60
2018-12-13T00:52:33.113Z,4.17
2018-12-13T00:55:02.149Z,4.37
2018-12-13T00:57:31.215Z,4.73
2018-12-13T01:00:00.305Z,4.73
2018-12-13T01:02:29.347Z,4.47
2018-12-13T01:04:58.402Z,4.57
2018-12-13T01:07:27.544Z,4.23
2018-12-13T01:09:56.597Z,4.27
2018-12-13T01:12:25.637Z,4.43
2018-12-13T01:14:54.708Z,4.83
2018-12-13T01:17:23.754Z,4.83
2018-12-13T01:19:52.804Z,4.97
2018-12-13T01:22:21.897Z,4.93
2018-12-13T01:24:50.942Z,4.80
2018-12-13T01:27:19.979Z,5.43
2018-12-13T01:29:49.048Z,6.07
2018-12-13T01:32:18.094Z,5.80
2018-12-13T01:34:47.135Z,6.30
2018-12-13T01:37:16.209Z,6.90
2018-12-13T01:39:45.251Z,5.23
2018-12-13T01:42:14.294Z,5.53
2018-12-13T01:44:43.411Z,5.10
2018-12-13T01:47:12.443Z,4.90
2018-12-13T01:49:41.493Z,4.50
2018-12-13T01:52:10.566Z,3.93
2018-12-13T01:54:39.617Z,3.77
2018-12-13T01:57:08.671Z,4.90
2018-12-13T01:59:37.742Z,5.80
2018-12-13T02:02:06.786Z,5.57
2018-12-13T02:04:35.832Z,5.47
2018-12-13T02:07:05.243Z,5.57
2018-12-13T02:09:34.294Z,5.60
2018-12-13T02:12:03.357Z,6.13
2018-12-13T02:14:32.437Z,5.87
2018-12-13T02:17:01.489Z,5.60
2018-12-13T02:19:30.544Z,4.37
2018-12-13T02:21:59.627Z,4.70
2018-12-13T02:24:28.667Z,4.10
2018-12-13T02:26:57.716Z,4.00
2018-12-13T02:29:26.887Z,4.73
2018-12-13T02:31:55.933Z,4.63
2018-12-13T02:34:24.981Z,4.13
2018-12-13T02:36:54.053Z,4.90
2018-12-13T02:39:23.107Z,4.80
2018-12-13T02:41:52.142Z,5.97
2018-12-13T02:44:21.423Z,5.80
2018-12-13T02:46:50.480Z,5.80
2018-12-13T02:49:19.532Z,6.20
2018-12-13T02:51:48.629Z,6.73
2018-12-13T02:54:17.676Z,6.17
2018-12-13T02:56:46.728Z,6.63
2018-12-13T02:59:15.797Z,8.10
2018-12-13T03:01:44.852Z,9.67
2018-12-13T03:04:13.912Z,10.43
2018-12-13T03:06:43.076Z,10.10
2018-12-13T03:09:12.120Z,10.93
2018-12-13T03:11:41.174Z,10.67
2018-12-13T03:14:10.286Z,10.27
2018-12-13T03:16:39.350Z,10.17
2018-12-13T03:19:08.407Z,10.87
2018-12-13T03:21:37.486Z,10.93
2018-12-13T03:24:06.535Z,10.33
2018-12-13T03:26:35.594Z,10.00
2018-12-13T03:29:04.672Z,9.87
2018-12-13T03:31:33.723Z,10.53
2018-12-13T03:34:02.784Z,11.97
2018-12-13T03:36:31.909Z,14.67
2018-12-13T03:39:00.964Z,16.83
2018-12-13T03:41:30.026Z,17.10
2018-12-13T03:43:59.115Z,20.10
2018-12-13T03:46:28.167Z,22.23
2018-12-13T03:48:57.222Z,22.50
2018-12-13T03:51:26.306Z,13.93
2018-12-13T03:53:55.350Z,5.77
2018-12-13T03:56:24.395Z,5.93
2018-12-13T03:58:53.474Z,5.87
2018-12-13T04:01:22.528Z,7.77
2018-12-13T04:03:51.576Z,6.90
2018-12-13T04:06:26.739Z,7.17
2018-12-13T04:08:55.788Z,6.80
2018-12-13T04:11:24.844Z,6.50
2018-12-13T04:13:53.916Z,7.23
2018-12-13T04:16:33.840Z,7.07
2018-12-13T04:19:02.938Z,7.37
2018-12-13T04:21:31.978Z,6.73
2018-12-13T04:24:01.022Z,7.57
2018-12-13T04:26:30.087Z,6.73
2018-12-13T04:28:59.136Z,6.63
2018-12-13T04:31:28.185Z,4.47
2018-12-13T04:33:57.261Z,5.93
2018-12-13T04:36:26.303Z,6.50
2018-12-13T04:38:55.368Z,7.33
2018-12-13T04:41:24.480Z,7.57
2018-12-13T04:43:53.527Z,7.17
2018-12-13T04:46:22.573Z,4.77
2018-12-13T04:48:51.678Z,6.00
2018-12-13T04:51:20.716Z,6.03
2018-12-13T04:53:49.777Z,6.10
2018-12-13T04:56:33.883Z,7.17
2018-12-13T04:59:02.934Z,7.47
2018-12-13T05:01:31.990Z,7.47
2018-12-13T05:04:01.056Z,6.20
2018-12-13T05:06:30.107Z,7.43
2018-12-13T05:08:59.149Z,6.27
2018-12-13T05:11:28.227Z,7.23
2018-12-13T05:13:57.287Z,15.20
2018-12-13T05:16:26.359Z,21.00
2018-12-13T05:18:55.465Z,11.23
2018-12-13T05:21:24.524Z,13.53
2018-12-13T05:23:53.593Z,13.73
2018-12-13T05:26:39.731Z,17.50
2018-12-13T05:29:08.793Z,18.10
2018-12-13T05:31:37.843Z,14.17
2018-12-13T05:34:07.031Z,8.30
2018-12-13T05:36:36.088Z,16.57
2018-12-13T05:39:05.130Z,8.73
2018-12-13T05:41:34.234Z,9.33
2018-12-13T05:44:03.287Z,8.07
2018-12-13T05:46:32.332Z,7.93
2018-12-13T05:49:01.412Z,8.73
2018-12-13T05:51:30.503Z,12.20
2018-12-13T05:53:59.554Z,23.47
2018-12-13T05:56:36.454Z,9.23
2018-12-13T05:59:05.504Z,8.60
2018-12-13T06:01:34.555Z,9.77
2018-12-13T06:04:03.639Z,14.50
2018-12-13T06:06:34.656Z,17.43
2018-12-13T06:09:03.710Z,17.00
2018-12-13T06:11:32.794Z,13.80
2018-12-13T06:14:01.854Z,10.90
2018-12-13T06:16:30.909Z,11.20
2018-12-13T06:19:00.015Z,12.00
2018-12-13T06:21:29.073Z,12.37
2018-12-13T06:23:58.130Z,14.53
2018-12-13T06:26:27.215Z,15.87
2018-12-13T06:28:56.263Z,9.37
2018-12-13T06:31:25.343Z,8.60
2018-12-13T06:33:54.502Z,8.33
2018-12-13T06:36:28.813Z,6.57
2018-12-13T06:38:57.926Z,6.77
2018-12-13T06:41:26.973Z,6.67
2018-12-13T06:43:56.010Z,6.53
2018-12-13T06:46:25.093Z,8.70
2018-12-13T06:48:54.147Z,8.30
2018-12-13T06:51:23.185Z,9.70
2018-12-13T06:53:52.257Z,10.77
2018-12-13T06:56:21.323Z,9.37
2018-12-13T06:58:50.379Z,10.33
2018-12-13T07:01:19.474Z,20.37
2018-12-13T07:03:48.534Z,12.40
2018-12-13T07:06:17.588Z,37.07
2018-12-13T07:08:46.666Z,14.43
2018-12-13T07:11:15.707Z,13.33
2018-12-13T07:13:44.762Z,16.00
2018-12-13T07:16:13.829Z,37.03
2018-12-13T07:18:42.881Z,43.77
2018-12-13T07:21:11.948Z,17.13
2018-12-13T07:23:41.041Z,10.57
2018-12-13T07:26:16.164Z,11.03
2018-12-13T07:28:45.277Z,34.03
2018-12-13T07:31:14.335Z,11.70
2018-12-13T07:33:43.400Z,10.03
2018-12-13T07:36:19.930Z,41.20
2018-12-13T07:38:48.994Z,25.17
2018-12-13T07:41:18.146Z,13.67
2018-12-13T07:43:47.249Z,24.27
2018-12-13T07:46:16.309Z,20.50
2018-12-13T07:48:45.370Z,13.97
2018-12-13T07:51:14.451Z,18.07
2018-12-13T07:53:43.505Z,14.30
2018-12-13T07:56:12.667Z,14.50
2018-12-13T07:58:41.687Z,22.90
2018-12-13T08:01:10.748Z,23.40
2018-12-13T08:03:39.810Z,24.57
2018-12-13T08:06:08.944Z,19.30
2018-12-13T08:08:38.004Z,22.00
2018-12-13T08:11:07.065Z,27.03
2018-12-13T08:13:36.150Z,32.10
2018-12-13T08:16:05.204Z,13.97
2018-12-13T08:18:34.255Z,14.63
2018-12-13T08:21:03.345Z,14.67
2018-12-13T08:23:32.405Z,20.23
2018-12-13T08:26:01.461Z,10.13
2018-12-13T08:28:30.577Z,17.23
2018-12-13T08:30:59.634Z,12.90
2018-12-13T08:33:28.699Z,19.43
2018-12-13T08:35:59.789Z,14.30
2018-12-13T08:38:28.845Z,14.40
2018-12-13T08:40:57.896Z,25.03
2018-12-13T08:43:26.986Z,32.07
2018-12-13T08:45:56.052Z,19.47
2018-12-13T08:48:25.118Z,16.23
2018-12-13T08:50:54.372Z,18.57
2018-12-13T08:53:23.279Z,14.23
2018-12-13T08:55:53.355Z,14.77
2018-12-13T08:58:22.442Z,17.00
2018-12-13T09:00:51.503Z,53.33
2018-12-13T09:03:20.579Z,102.50
2018-12-13T09:05:49.671Z,97.03
2018-12-13T09:08:18.772Z,137.90
2018-12-13T09:10:47.837Z,76.90
2018-12-13T09:13:17.243Z,87.13
2018-12-13T09:15:46.303Z,50.23
2018-12-13T09:18:15.360Z,27.40
2018-12-13T09:20:44.448Z,13.20
2018-12-13T09:23:13.505Z,12.70
2018-12-13T09:25:42.558Z,10.73
2018-12-13T09:28:11.647Z,14.60
2018-12-13T09:30:40.704Z,31.80
2018-12-13T09:33:09.772Z,39.67
2018-12-13T09:35:39.003Z,42.73
2018-12-13T09:38:08.060Z,45.10
2018-12-13T09:40:37.124Z,44.60
2018-12-13T09:43:06.205Z,36.00
2018-12-13T09:45:35.264Z,31.80
2018-12-13T09:48:04.325Z,27.90
2018-12-13T09:50:33.417Z,21.67
2018-12-13T09:53:02.490Z,19.27
2018-12-13T09:55:31.545Z,14.47
2018-12-13T09:58:00.653Z,14.57
2018-12-13T10:00:29.717Z,10.47
2018-12-13T10:02:58.762Z,7.20
2018-12-13T10:05:27.868Z,8.93
2018-12-13T10:07:56.924Z,9.67
2018-12-13T10:10:25.982Z,12.10
2018-12-13T10:12:55.075Z,15.37
2018-12-13T10:15:24.146Z,24.80
2018-12-13T10:17:53.197Z,23.03
2018-12-13T10:20:22.334Z,24.00
2018-12-13T10:22:51.399Z,13.83
2018-12-13T10:25:20.453Z,15.47
2018-12-13T10:27:49.543Z,21.17
2018-12-13T10:30:18.597Z,15.70
2018-12-13T10:32:47.649Z,14.60
2018-12-13T10:35:16.826Z,15.50
2018-12-13T10:37:45.881Z,17.60
2018-12-13T10:40:14.937Z,13.20
2018-12-13T10:42:44.037Z,14.00
2018-12-13T10:45:13.091Z,7.40
2018-12-13T10:47:42.147Z,13.03
2018-12-13T10:50:11.242Z,13.00
2018-12-13T10:52:40.294Z,26.27
2018-12-13T10:55:09.377Z,32.60
2018-12-13T10:57:38.483Z,25.60
2018-12-13T11:00:07.541Z,23.70
2018-12-13T11:02:43.203Z,13.70
2018-12-13T11:05:12.258Z,13.40
2018-12-13T11:07:41.317Z,32.23
2018-12-13T11:10:10.394Z,15.77
2018-12-13T11:12:39.444Z,16.93
2018-12-13T11:15:08.492Z,13.20
2018-12-13T11:17:37.569Z,12.47
2018-12-13T11:20:06.626Z,11.23
2018-12-13T11:22:35.689Z,9.70
2018-12-13T11:25:04.944Z,10.13
2018-12-13T11:27:45.808Z,10.87
2018-12-13T11:30:21.426Z,9.70
2018-12-13T11:32:50.481Z,15.37
2018-12-13T11:35:19.558Z,15.03
2018-12-13T11:37:48.648Z,18.13
2018-12-13T11:40:17.714Z,20.90
2018-12-13T11:42:46.774Z,19.50
2018-12-13T11:45:15.889Z,13.80
2018-12-13T11:47:44.957Z,23.67
2018-12-13T11:50:14.017Z,19.63
2018-12-13T11:52:43.103Z,11.00
2018-12-13T11:55:19.778Z,25.30
2018-12-13T11:57:48.857Z,9.60
2018-12-13T12:00:17.913Z,18.47
2018-12-13T12:02:46.976Z,12.73
2018-12-13T12:05:16.082Z,10.67
2018-12-13T12:07:45.148Z,16.37
2018-12-13T12:10:14.225Z,10.77
2018-12-13T12:12:43.297Z,27.33
2018-12-13T12:15:12.361Z,51.33
2018-12-13T12:17:41.425Z,25.10
2018-12-13T12:20:10.504Z,35.40
2018-12-13T12:22:39.577Z,48.87
2018-12-13T12:25:08.646Z,38.87
2018-12-13T12:27:37.731Z,20.93
2018-12-13T12:30:06.788Z,22.17
2018-12-13T12:32:35.850Z,27.97
2018-12-13T12:35:04.965Z,57.30
2018-12-13T12:37:34.015Z,43.90
2018-12-13T12:40:03.078Z,62.87
2018-12-13T12:42:32.180Z,50.90
2018-12-13T12:45:01.245Z,60.97
2018-12-13T12:47:30.296Z,42.77
2018-12-13T12:49:59.397Z,62.93
2018-12-13T12:52:28.441Z,44.33
2018-12-13T12:54:57.509Z,56.77
2018-12-13T12:57:26.603Z,73.10
2018-12-13T12:59:55.691Z,70.80
2018-12-13T13:02:24.776Z,47.27
2018-12-13T13:04:53.862Z,45.17
2018-12-13T13:07:22.942Z,44.47
2018-12-13T13:09:52.074Z,32.37
2018-12-13T13:12:21.299Z,37.70
2018-12-13T13:14:50.400Z,22.07
2018-12-13T13:17:19.511Z,37.33
2018-12-13T13:19:48.602Z,11.87
2018-12-13T13:22:17.659Z,9.97
2018-12-13T13:24:46.721Z,15.67
2018-12-13T13:27:15.815Z,23.53
2018-12-13T13:29:44.873Z,20.23
2018-12-13T13:32:13.983Z,26.90
2018-12-13T13:34:43.129Z,59.70
2018-12-13T13:37:12.197Z,29.13
2018-12-13T13:39:41.264Z,36.17
2018-12-13T13:42:10.348Z,25.37
2018-12-13T13:44:39.422Z,37.37
2018-12-13T13:47:08.490Z,26.43
2018-12-13T13:49:37.594Z,71.27
2018-12-13T13:52:06.668Z,67.87
2018-12-13T13:54:35.746Z,108.90
2018-12-13T13:57:04.868Z,67.60
2018-12-13T13:59:33.931Z,49.40
2018-12-13T14:02:03.003Z,72.67
2018-12-13T14:04:32.099Z,119.30
2018-12-13T14:07:01.173Z,98.20
2018-12-13T14:09:30.231Z,71.07
2018-12-13T14:11:59.321Z,90.20
2018-12-13T14:14:28.383Z,54.20
2018-12-13T14:16:57.451Z,35.57
2018-12-13T14:19:26.572Z,33.93
2018-12-13T14:21:55.630Z,35.73
2018-12-13T14:24:24.693Z,23.87
2018-12-13T14:26:53.806Z,23.17
2018-12-13T14:29:22.877Z,34.37
2018-12-13T14:31:51.948Z,38.43
2018-12-13T14:34:21.024Z,46.77
2018-12-13T14:36:50.083Z,54.90
2018-12-13T14:39:19.145Z,60.50
2018-12-13T14:41:48.285Z,67.03
2018-12-13T14:44:17.350Z,76.53
2018-12-13T14:46:46.425Z,80.97
2018-12-13T14:49:15.525Z,76.27
2018-12-13T14:51:44.598Z,78.33
2018-12-13T14:54:13.670Z,74.83
2018-12-13T14:56:42.776Z,84.33
2018-12-13T14:59:11.841Z,55.10
2018-12-13T15:01:40.898Z,54.97
2018-12-13T15:04:09.998Z,52.50
2018-12-13T15:06:39.057Z,46.43
2018-12-13T15:09:08.117Z,53.57
2018-12-13T15:11:37.487Z,95.27
2018-12-13T15:14:06.569Z,128.77
2018-12-13T15:16:35.626Z,76.60
2018-12-13T15:19:04.718Z,62.17
2018-12-13T15:21:33.829Z,97.63
2018-12-13T15:24:02.904Z,103.37
2018-12-13T15:29:26.347Z,101.63
2018-12-13T15:31:59.353Z,117.37
2018-12-13T15:34:24.919Z,109.73
2018-12-13T15:36:53.989Z,119.83
2018-12-13T15:39:23.080Z,143.23
2018-12-13T15:41:52.189Z,129.10
2018-12-13T15:44:21.232Z,141.77
2018-12-13T15:46:50.365Z,110.10
2018-12-13T15:49:19.440Z,87.03
2018-12-13T15:51:48.509Z,44.77
2018-12-13T15:54:17.621Z,115.43
2018-12-13T15:56:46.698Z,119.40
2018-12-13T15:59:15.787Z,79.23
2018-12-13T16:01:44.885Z,47.77
2018-12-13T16:04:13.957Z,49.93
2018-12-13T16:06:43.024Z,33.23
2018-12-13T16:09:12.474Z,52.80
2018-12-13T16:11:41.528Z,37.73
2018-12-13T16:14:10.586Z,38.57
2018-12-13T16:16:39.698Z,34.30
2018-12-13T16:19:08.755Z,43.20
2018-12-13T16:21:37.821Z,52.97
2018-12-13T16:24:06.908Z,36.40
2018-12-13T16:26:35.969Z,38.63
2018-12-13T16:29:05.032Z,79.90
2018-12-13T16:31:34.163Z,57.90
2018-12-13T16:34:03.228Z,49.47
2018-12-13T16:36:36.839Z,54.37
2018-12-13T16:39:05.898Z,39.13
2018-12-13T16:41:34.959Z,64.27
2018-12-13T16:44:04.047Z,42.67
2018-12-13T16:46:33.123Z,36.67
2018-12-13T16:49:02.182Z,29.07
2018-12-13T16:51:31.352Z,29.20
2018-12-13T16:54:00.421Z,34.43
2018-12-13T16:56:29.484Z,16.57
2018-12-13T16:58:58.573Z,19.43
2018-12-13T17:01:27.773Z,24.87
2018-12-13T17:03:56.802Z,27.03
2018-12-13T17:06:25.931Z,26.53
2018-12-13T17:08:54.992Z,32.37
2018-12-13T17:11:24.052Z,26.20
2018-12-13T17:13:53.168Z,36.00
2018-12-13T17:16:22.238Z,30.90
2018-12-13T17:18:51.315Z,48.37
2018-12-13T17:21:20.399Z,30.70
2018-12-13T17:23:49.468Z,22.27
2018-12-13T17:26:18.535Z,19.80
2018-12-13T17:28:47.626Z,24.27
2018-12-13T17:31:16.687Z,31.80
2018-12-13T17:33:45.754Z,38.90
2018-12-13T17:36:15.067Z,26.60
2018-12-13T17:38:44.134Z,17.83
2018-12-13T17:41:13.184Z,16.70
2018-12-13T17:43:42.272Z,15.93
2018-12-13T17:46:13.351Z,14.77
2018-12-13T17:48:42.436Z,13.87
2018-12-13T17:51:11.496Z,34.03
2018-12-13T17:53:40.562Z,43.17
2018-12-13T17:56:26.602Z,19.23
2018-12-13T17:58:55.679Z,29.97
2018-12-13T18:01:24.747Z,62.77
2018-12-13T18:03:53.839Z,27.90
2018-12-13T18:06:22.906Z,26.50
2018-12-13T18:08:51.974Z,25.60
2018-12-13T18:11:21.069Z,25.33
2018-12-13T18:13:50.131Z,30.23
2018-12-13T18:16:19.189Z,32.43
2018-12-13T18:18:48.328Z,43.47
2018-12-13T18:21:17.440Z,58.90
2018-12-13T18:23:47.025Z,56.10
2018-12-13T18:26:30.260Z,68.13
2018-12-13T18:28:59.330Z,47.37
2018-12-13T18:31:28.396Z,55.70
2018-12-13T18:33:57.517Z,23.70
2018-12-13T18:36:26.577Z,37.73
2018-12-13T18:38:55.635Z,37.50
2018-12-13T18:41:24.732Z,69.73
2018-12-13T18:43:53.808Z,103.60
2018-12-13T18:46:35.761Z,79.00
2018-12-13T18:49:04.818Z,25.23
2018-12-13T18:51:33.898Z,52.40
2018-12-13T18:54:03.026Z,72.47
2018-12-13T18:56:32.098Z,40.17
2018-12-13T18:59:01.160Z,41.47
2018-12-13T19:01:30.250Z,19.30
2018-12-13T19:03:59.324Z,15.60
2018-12-13T19:06:31.550Z,27.27
2018-12-13T19:09:00.614Z,16.47
2018-12-13T19:11:36.371Z,13.37
2018-12-13T19:14:05.470Z,11.67
2018-12-13T19:16:34.562Z,17.70
2018-12-13T19:19:03.631Z,18.83
2018-12-13T19:21:32.753Z,25.07
2018-12-13T19:24:01.821Z,12.10
2018-12-13T19:26:30.881Z,11.77
2018-12-13T19:28:59.964Z,34.20
2018-12-13T19:31:29.033Z,33.60
2018-12-13T19:33:58.158Z,34.83
2018-12-13T19:36:29.352Z,35.00
2018-12-13T19:38:58.408Z,24.13
2018-12-13T19:41:27.478Z,22.77
2018-12-13T19:43:56.560Z,32.90
2018-12-13T19:46:25.622Z,19.57
2018-12-13T19:48:54.690Z,12.43
2018-12-13T19:51:23.814Z,11.33
2018-12-13T19:53:52.872Z,16.67
2018-12-13T19:56:21.943Z,20.27
2018-12-13T19:58:51.083Z,12.10
2018-12-13T20:01:20.139Z,9.37
2018-12-13T20:03:49.216Z,11.40
2018-12-13T20:06:18.391Z,14.17
2018-12-13T20:08:47.451Z,13.60
2018-12-13T20:11:16.504Z,9.83
2018-12-13T20:13:45.592Z,12.17
2018-12-13T20:16:14.638Z,9.33
2018-12-13T20:18:43.705Z,14.10
2018-12-13T20:21:12.812Z,28.43
2018-12-13T20:23:41.864Z,17.03
2018-12-13T20:26:10.932Z,9.87
2018-12-13T20:28:40.018Z,7.17
2018-12-13T20:31:09.064Z,7.33
2018-12-13T20:33:38.124Z,9.97
2018-12-13T20:36:07.199Z,8.07
2018-12-13T20:38:36.272Z,9.83
2018-12-13T20:41:05.339Z,7.83
2018-12-13T20:43:34.563Z,5.40
2018-12-13T20:46:03.624Z,9.23
2018-12-13T20:48:32.670Z,9.10
2018-12-13T20:51:01.848Z,12.33
2018-12-13T20:53:30.909Z,9.83
2018-12-13T20:56:09.551Z,16.70
2018-12-13T20:58:38.605Z,10.10
2018-12-13T21:01:07.663Z,9.83
2018-12-13T21:03:36.771Z,9.30
2018-12-13T21:06:05.830Z,9.33
2018-12-13T21:08:34.897Z,23.47
2018-12-13T21:11:07.385Z,17.67
2018-12-13T21:13:33.065Z,13.60
2018-12-13T21:16:02.312Z,11.77
2018-12-13T21:18:31.209Z,14.30
2018-12-13T21:21:00.269Z,10.90
2018-12-13T21:23:29.329Z,9.97
2018-12-13T21:25:58.466Z,8.23
2018-12-13T21:28:27.523Z,9.13
2018-12-13T21:30:56.579Z,8.23
2018-12-13T21:33:25.658Z,15.87
2018-12-13T21:35:54.744Z,19.17
2018-12-13T21:38:23.776Z,20.20
2018-12-13T21:40:53.200Z,13.13
2018-12-13T21:43:22.268Z,16.43
2018-12-13T21:45:51.338Z,11.87
2018-12-13T21:48:20.488Z,14.43
2018-12-13T21:50:49.559Z,14.43
2018-12-13T21:53:18.617Z,12.37
2018-12-13T21:55:47.731Z,17.17
2018-12-13T21:58:16.794Z,15.20
2018-12-13T22:00:45.867Z,8.97
2018-12-13T22:03:14.937Z,15.53
2018-12-13T22:05:44.000Z,13.33
2018-12-13T22:08:13.064Z,27.20
2018-12-13T22:10:42.262Z,17.33
2018-12-13T22:13:11.347Z,23.00
2018-12-13T22:15:40.411Z,25.00
2018-12-13T22:18:09.504Z,10.57
2018-12-13T22:20:38.573Z,17.63
2018-12-13T22:23:07.639Z,17.47
2018-12-13T22:25:36.735Z,23.87
2018-12-13T22:28:05.803Z,14.70
2018-12-13T22:30:34.878Z,17.20
2018-12-13T22:33:03.999Z,15.93
2018-12-13T22:35:33.135Z,15.60
2018-12-13T22:38:02.212Z,24.50
2018-12-13T22:40:31.302Z,11.63
2018-12-13T22:43:00.385Z,21.77
2018-12-13T22:45:39.331Z,27.90
2018-12-13T22:48:06.771Z,18.53
2018-12-13T22:50:35.919Z,17.87
2018-12-13T22:53:05.118Z,35.07
2018-12-13T22:55:34.217Z,21.90
2018-12-13T22:58:03.300Z,29.03
2018-12-13T23:00:32.358Z,20.30
2018-12-13T23:03:01.434Z,23.17
2018-12-13T23:05:30.512Z,27.60
2018-12-13T23:07:59.566Z,35.13
2018-12-13T23:10:28.641Z,42.17
2018-12-13T23:12:57.803Z,29.87
2018-12-13T23:15:26.873Z,58.03
2018-12-13T23:17:55.952Z,40.30
2018-12-13T23:20:25.097Z,34.33
2018-12-13T23:22:54.165Z,12.00
2018-12-13T23:25:23.229Z,11.37
2018-12-13T23:27:52.316Z,25.93
2018-12-13T23:30:21.385Z,29.43
2018-12-13T23:32:50.456Z,19.17
2018-12-13T23:35:19.609Z,18.07
2018-12-13T23:37:48.679Z,14.40
2018-12-13T23:40:17.745Z,10.53
2018-12-13T23:42:46.830Z,9.70
2018-12-13T23:45:15.879Z,8.60
2018-12-13T23:47:44.927Z,6.80
2018-12-13T23:50:14.125Z,13.50
2018-12-13T23:52:43.190Z,14.73
2018-12-13T23:55:12.254Z,12.30
2018-12-13T23:57:41.372Z,11.83
